createdAt,value
2024-04-06T00:00:11.122Z,99.99
2024-04-06T00:01:11.089Z,99.99
2024-04-06T00:02:11.069Z,99.99
2024-04-06T00:03:11.061Z,99.99
2024-04-06T00:04:11.104Z,99.99
2024-04-06T00:05:11.079Z,99.99
2024-04-06T00:06:11.060Z,99.99
2024-04-06T00:07:11.033Z,99.99
2024-04-06T00:08:16.725Z,99.99
2024-04-06T00:09:11.995Z,99.99
2024-04-06T00:10:10.996Z,99.99
2024-04-06T00:11:11.067Z,99.99
2024-04-06T00:12:11.306Z,99.99
2024-04-06T00:13:10.954Z,99.99
2024-04-06T00:14:10.943Z,99.99
2024-04-06T00:15:10.938Z,99.99
2024-04-06T00:16:10.977Z,99.99
2024-04-06T00:17:10.950Z,99.99
2024-04-06T00:18:10.940Z,99.99
2024-04-06T00:19:10.894Z,99.99
2024-04-06T00:20:10.988Z,99.99
2024-04-06T00:21:10.899Z,99.99
2024-04-06T00:22:10.855Z,99.99
2024-04-06T00:23:11.028Z,99.99
2024-04-06T00:24:10.839Z,99.99
2024-04-06T00:25:10.830Z,99.99
2024-04-06T00:26:11.139Z,99.99
2024-04-06T00:27:10.813Z,99.99
2024-04-06T00:28:10.803Z,99.99
2024-04-06T00:29:10.826Z,99.99
2024-04-06T00:30:10.799Z,99.99
2024-04-06T00:31:10.756Z,99.99
2024-04-06T00:32:10.761Z,99.99
2024-04-06T00:33:10.750Z,99.99
2024-04-06T00:34:10.726Z,99.99
2024-04-06T00:35:10.800Z,99.99
2024-04-06T00:36:10.998Z,99.99
2024-04-06T00:37:10.741Z,99.99
2024-04-06T00:38:10.776Z,99.99
2024-04-06T00:39:10.676Z,99.99
2024-04-06T00:40:10.668Z,99.99
2024-04-06T00:41:10.684Z,99.99
2024-04-06T00:42:10.671Z,99.99
2024-04-06T00:43:10.654Z,99.99
2024-04-06T00:44:10.634Z,99.99
2024-04-06T00:45:10.685Z,99.99
2024-04-06T00:46:10.603Z,99.99
2024-04-06T00:47:10.610Z,99.99
2024-04-06T00:48:10.892Z,99.99
2024-04-06T00:49:10.579Z,99.99
2024-04-06T00:50:10.577Z,99.99
2024-04-06T00:51:10.554Z,99.99
2024-04-06T00:52:10.542Z,99.99
2024-04-06T00:53:10.626Z,99.99
2024-04-06T00:54:10.566Z,99.99
2024-04-06T00:55:10.509Z,99.99
2024-04-06T00:56:10.498Z,99.99
2024-04-06T00:57:10.562Z,99.99
2024-04-06T00:58:10.475Z,99.99
2024-04-06T00:59:10.496Z,99.99
2024-04-06T01:00:10.459Z,99.96
2024-04-06T01:01:10.528Z,99.99
2024-04-06T01:02:10.434Z,99.99
2024-04-06T01:03:10.452Z,99.99
2024-04-06T01:04:10.417Z,99.99
2024-04-06T01:05:10.426Z,99.96
2024-04-06T01:06:10.471Z,99.99
2024-04-06T01:07:10.482Z,99.99
2024-04-06T01:08:10.385Z,99.99
2024-04-06T01:09:10.404Z,99.99
2024-04-06T01:10:10.346Z,99.99
2024-04-06T01:11:10.393Z,99.99
2024-04-06T01:12:10.322Z,99.99
2024-04-06T01:13:10.414Z,99.99
2024-04-06T01:14:10.303Z,99.99
2024-04-06T01:15:10.301Z,99.99
2024-04-06T01:16:10.288Z,99.99
2024-04-06T01:17:10.303Z,99.99
2024-04-06T01:18:10.501Z,99.99
2024-04-06T01:19:10.386Z,99.99
2024-04-06T01:20:10.267Z,99.99
2024-04-06T01:21:10.242Z,99.99
2024-04-06T01:22:10.226Z,99.99
2024-04-06T01:23:10.240Z,99.99
2024-04-06T01:24:10.488Z,99.99
2024-04-06T01:25:10.207Z,99.99
2024-04-06T01:26:10.177Z,99.99
2024-04-06T01:27:10.172Z,99.99
2024-04-06T01:28:10.160Z,99.99
2024-04-06T01:29:10.167Z,99.99
2024-04-06T01:30:10.269Z,99.99
2024-04-06T01:31:10.127Z,99.99
2024-04-06T01:32:10.122Z,99.99
2024-04-06T01:33:10.150Z,99.99
2024-04-06T01:34:10.095Z,99.99
2024-04-06T01:35:10.346Z,99.99
2024-04-06T01:36:10.082Z,99.99
2024-04-06T01:37:10.062Z,99.99
2024-04-06T01:38:10.051Z,99.99
2024-04-06T01:39:10.055Z,99.99
2024-04-06T01:40:10.055Z,99.99
2024-04-06T01:41:10.257Z,99.99
2024-04-06T01:42:10.010Z,99.99
2024-04-06T01:43:10.022Z,99.99
2024-04-06T01:44:09.989Z,99.99
2024-04-06T01:45:09.994Z,99.99
2024-04-06T01:46:09.967Z,99.99
2024-04-06T01:47:10.236Z,99.99
2024-04-06T01:48:09.946Z,99.99
2024-04-06T01:49:10.085Z,99.99
2024-04-06T01:50:09.925Z,99.99
2024-04-06T01:51:09.923Z,99.99
2024-04-06T01:52:09.924Z,99.99
2024-04-06T01:53:09.957Z,99.99
2024-04-06T01:54:09.926Z,99.99
2024-04-06T01:55:10.190Z,99.99
2024-04-06T01:56:09.880Z,99.99
2024-04-06T01:57:09.859Z,99.99
2024-04-06T01:58:10.008Z,99.99
2024-04-06T01:59:09.829Z,99.99
2024-04-06T02:00:09.928Z,99.99
2024-04-06T02:01:09.808Z,99.99
2024-04-06T02:02:09.804Z,99.99
2024-04-06T02:03:10.029Z,99.99
2024-04-06T02:04:09.789Z,99.99
2024-04-06T02:05:09.794Z,99.99
2024-04-06T02:06:09.941Z,99.99
2024-04-06T02:07:09.745Z,99.99
2024-04-06T02:08:09.740Z,99.99
2024-04-06T02:09:10.050Z,99.99
2024-04-06T02:10:09.729Z,99.99
2024-04-06T02:11:09.704Z,99.99
2024-04-06T02:12:09.694Z,99.99
2024-04-06T02:13:09.685Z,99.99
2024-04-06T02:14:09.672Z,99.99
2024-04-06T02:15:09.951Z,99.99
2024-04-06T02:16:09.667Z,99.99
2024-04-06T02:17:09.646Z,99.99
2024-04-06T02:18:09.634Z,99.99
2024-04-06T02:19:09.653Z,99.99
2024-04-06T02:20:09.897Z,99.99
2024-04-06T02:21:09.654Z,99.99
2024-04-06T02:22:09.597Z,99.99
2024-04-06T02:23:09.583Z,99.99
2024-04-06T02:24:09.577Z,99.99
2024-04-06T02:25:09.601Z,99.99
2024-04-06T02:26:09.836Z,99.99
2024-04-06T02:27:09.568Z,99.99
2024-04-06T02:28:09.525Z,99.99
2024-04-06T02:29:09.515Z,99.99
2024-04-06T02:30:09.668Z,99.99
2024-04-06T02:31:09.500Z,99.99
2024-04-06T02:32:09.507Z,99.99
2024-04-06T02:33:09.538Z,99.99
2024-04-06T02:34:09.465Z,99.99
2024-04-06T02:35:09.462Z,99.99
2024-04-06T02:36:09.481Z,99.99
2024-04-06T02:37:09.496Z,99.99
2024-04-06T02:38:09.421Z,99.99
2024-04-06T02:39:09.476Z,99.99
2024-04-06T02:40:09.412Z,99.99
2024-04-06T02:41:09.388Z,99.99
2024-04-06T02:42:09.398Z,99.99
2024-04-06T02:43:09.397Z,99.99
2024-04-06T02:44:09.357Z,99.99
2024-04-06T02:45:09.387Z,99.99
2024-04-06T02:46:09.336Z,99.99
2024-04-06T02:47:09.401Z,99.99
2024-04-06T02:48:09.312Z,99.99
2024-04-06T02:49:09.305Z,99.99
2024-04-06T02:50:09.311Z,99.99
2024-04-06T02:51:09.314Z,99.99
2024-04-06T02:52:09.272Z,99.99
2024-04-06T02:53:09.600Z,99.99
2024-04-06T02:54:09.254Z,99.99
2024-04-06T02:55:09.257Z,99.99
2024-04-06T02:56:09.241Z,99.99
2024-04-06T02:57:09.252Z,99.99
2024-04-06T02:58:09.231Z,99.99
2024-04-06T02:59:09.191Z,99.99
2024-04-06T03:00:09.476Z,99.99
2024-04-06T03:01:09.207Z,99.99
2024-04-06T03:02:09.169Z,99.99
2024-04-06T03:03:09.168Z,99.99
2024-04-06T03:04:09.419Z,99.99
2024-04-06T03:05:09.226Z,99.99
2024-04-06T03:06:09.126Z,99.99
2024-04-06T03:07:09.141Z,99.99
2024-04-06T03:08:09.103Z,99.99
2024-04-06T03:09:09.140Z,99.99
2024-04-06T03:10:09.084Z,99.99
2024-04-06T03:11:09.133Z,99.99
2024-04-06T03:12:09.072Z,99.99
2024-04-06T03:13:09.050Z,99.99
2024-04-06T03:14:09.040Z,99.99
2024-04-06T03:15:09.067Z,99.99
2024-04-06T03:16:09.026Z,99.99
2024-04-06T03:17:09.308Z,99.99
2024-04-06T03:18:08.998Z,99.99
2024-04-06T03:19:08.984Z,99.99
2024-04-06T03:20:09.024Z,99.99
2024-04-06T03:21:09.004Z,99.99
2024-04-06T03:22:08.956Z,99.99
2024-04-06T03:23:08.962Z,99.99
2024-04-06T03:24:08.938Z,99.99
2024-04-06T03:25:08.931Z,99.99
2024-04-06T03:26:08.965Z,99.99
2024-04-06T03:27:08.905Z,99.99
2024-04-06T03:28:08.906Z,99.99
2024-04-06T03:29:08.878Z,99.99
2024-04-06T03:30:08.875Z,99.99
2024-04-06T03:31:08.883Z,99.99
2024-04-06T03:32:08.876Z,99.99
2024-04-06T03:33:08.842Z,99.99
2024-04-06T03:34:10.472Z,99.99
2024-04-06T03:35:08.826Z,99.99
2024-04-06T03:36:08.816Z,99.99
2024-04-06T03:37:08.802Z,99.99
2024-04-06T03:38:08.857Z,99.99
2024-04-06T03:39:08.811Z,99.99
2024-04-06T03:40:08.763Z,99.99
2024-04-06T03:41:08.792Z,99.99
2024-04-06T03:42:08.760Z,99.99
2024-04-06T03:43:08.745Z,99.99
2024-04-06T03:44:08.754Z,99.99
2024-04-06T03:45:08.821Z,99.99
2024-04-06T03:46:08.726Z,99.99
2024-04-06T03:47:08.695Z,99.99
2024-04-06T03:48:08.864Z,99.99
2024-04-06T03:49:08.671Z,99.99
2024-04-06T03:50:08.693Z,99.99
2024-04-06T03:51:08.657Z,99.99
2024-04-06T03:52:08.647Z,99.99
2024-04-06T03:53:08.636Z,99.99
2024-04-06T03:54:08.658Z,99.99
2024-04-06T03:55:08.625Z,99.99
2024-04-06T03:56:08.633Z,99.99
2024-04-06T03:57:08.586Z,99.99
2024-04-06T03:58:08.585Z,99.99
2024-04-06T03:59:08.591Z,99.99
2024-04-06T04:00:08.566Z,99.99
2024-04-06T04:01:08.546Z,99.99
2024-04-06T04:02:08.547Z,99.99
2024-04-06T04:03:08.531Z,99.99
2024-04-06T04:04:08.533Z,99.99
2024-04-06T04:05:08.776Z,99.99
2024-04-06T04:06:08.524Z,99.99
2024-04-06T04:07:08.478Z,99.99
2024-04-06T04:08:08.506Z,99.99
2024-04-06T04:09:08.461Z,99.99
2024-04-06T04:10:08.450Z,99.99
2024-04-06T04:11:08.473Z,99.99
2024-04-06T04:12:08.431Z,99.99
2024-04-06T04:13:08.423Z,99.99
2024-04-06T04:14:08.472Z,99.99
2024-04-06T04:15:08.432Z,99.99
2024-04-06T04:16:08.401Z,99.99
2024-04-06T04:17:08.395Z,99.99
2024-04-06T04:18:08.368Z,99.99
2024-04-06T04:19:08.382Z,99.99
2024-04-06T04:20:08.379Z,99.99
2024-04-06T04:21:08.332Z,99.99
2024-04-06T04:22:08.422Z,99.99
2024-04-06T04:23:08.416Z,99.99
2024-04-06T04:24:08.302Z,99.99
2024-04-06T04:25:08.299Z,99.99
2024-04-06T04:26:08.309Z,99.99
2024-04-06T04:27:08.293Z,99.99
2024-04-06T04:28:08.314Z,99.99
2024-04-06T04:29:08.262Z,99.99
2024-04-06T04:30:08.249Z,99.99
2024-04-06T04:31:08.231Z,99.99
2024-04-06T04:32:08.244Z,99.99
2024-04-06T04:33:08.234Z,99.99
2024-04-06T04:34:08.232Z,99.99
2024-04-06T04:35:08.202Z,99.99
2024-04-06T04:36:08.223Z,99.99
2024-04-06T04:37:08.171Z,99.99
2024-04-06T04:38:08.193Z,99.99
2024-04-06T04:39:08.148Z,99.99
2024-04-06T04:40:08.168Z,99.99
2024-04-06T04:41:08.124Z,99.99
2024-04-06T04:42:08.130Z,99.99
2024-04-06T04:43:08.106Z,99.99
2024-04-06T04:44:24.731Z,99.99
2024-04-06T04:45:09.219Z,99.99
2024-04-06T04:46:08.081Z,99.99
2024-04-06T04:47:08.304Z,99.99
2024-04-06T04:48:08.065Z,99.99
2024-04-06T04:49:08.112Z,99.99
2024-04-06T04:50:08.131Z,99.99
2024-04-06T04:51:08.026Z,99.99
2024-04-06T04:52:08.164Z,99.99
2024-04-06T04:53:08.037Z,99.99
2024-04-06T04:54:07.994Z,99.99
2024-04-06T04:55:08.258Z,99.99
2024-04-06T04:56:07.994Z,99.99
2024-04-06T04:57:08.498Z,99.99
2024-04-06T04:58:08.121Z,99.99
2024-04-06T04:59:07.939Z,99.99
2024-04-06T05:00:07.928Z,99.99
2024-04-06T05:01:07.947Z,99.99
2024-04-06T05:02:07.936Z,99.99
2024-04-06T05:03:07.903Z,99.99
2024-04-06T05:04:08.190Z,99.99
2024-04-06T05:05:07.887Z,99.99
2024-04-06T05:06:07.866Z,99.99
2024-04-06T05:07:07.881Z,99.99
2024-04-06T05:08:07.846Z,99.99
2024-04-06T05:09:07.983Z,99.99
2024-04-06T05:10:07.823Z,99.99
2024-04-06T05:11:07.819Z,99.99
2024-04-06T05:12:07.803Z,99.99
2024-04-06T05:13:07.844Z,99.99
2024-04-06T05:14:07.815Z,99.99
2024-04-06T05:15:08.035Z,99.99
2024-04-06T05:16:07.781Z,99.99
2024-04-06T05:17:07.748Z,99.99
2024-04-06T05:18:07.865Z,99.99
2024-04-06T05:19:07.755Z,99.99
2024-04-06T05:20:07.730Z,99.99
2024-04-06T05:21:07.703Z,99.99
2024-04-06T05:22:07.839Z,99.99
2024-04-06T05:23:07.684Z,99.99
2024-04-06T05:24:07.672Z,99.99
2024-04-06T05:25:07.743Z,99.99
2024-04-06T05:26:07.689Z,99.99
2024-04-06T05:27:07.644Z,99.99
2024-04-06T05:28:07.911Z,99.99
2024-04-06T05:29:07.619Z,99.99
2024-04-06T05:30:07.613Z,99.99
2024-04-06T05:31:07.643Z,99.99
2024-04-06T05:32:07.592Z,99.99
2024-04-06T05:33:07.580Z,99.99
2024-04-06T05:34:07.608Z,99.99
2024-04-06T05:35:07.635Z,99.99
2024-04-06T05:36:07.566Z,99.99
2024-04-06T05:37:07.625Z,99.99
2024-04-06T05:38:07.534Z,99.99
2024-04-06T05:39:07.544Z,99.99
2024-04-06T05:40:07.666Z,99.99
2024-04-06T05:41:07.494Z,99.99
2024-04-06T05:42:07.641Z,99.99
2024-04-06T05:43:07.493Z,99.99
2024-04-06T05:44:07.710Z,99.99
2024-04-06T05:45:07.466Z,99.99
2024-04-06T05:46:07.484Z,99.99
2024-04-06T05:47:07.585Z,99.99
2024-04-06T05:48:07.616Z,99.99
2024-04-06T05:49:07.457Z,99.99
2024-04-06T05:50:07.405Z,99.99
2024-04-06T05:51:07.428Z,99.99
2024-04-06T05:52:07.391Z,99.99
2024-04-06T05:53:07.371Z,99.99
2024-04-06T05:54:07.363Z,99.99
2024-04-06T05:55:07.515Z,99.99
2024-04-06T05:56:07.359Z,99.99
2024-04-06T05:57:07.327Z,99.99
2024-04-06T05:58:07.333Z,99.99
2024-04-06T05:59:07.554Z,99.99
2024-04-06T06:00:07.306Z,99.99
2024-04-06T06:01:07.310Z,99.99
2024-04-06T06:02:07.427Z,99.99
2024-04-06T06:03:07.316Z,99.99
2024-04-06T06:04:07.531Z,99.99
2024-04-06T06:05:08.165Z,99.99
2024-04-06T06:06:07.293Z,99.99
2024-04-06T06:07:07.221Z,99.99
2024-04-06T06:08:07.349Z,99.99
2024-04-06T06:09:07.209Z,99.99
2024-04-06T06:10:07.198Z,99.99
2024-04-06T06:11:07.225Z,99.99
2024-04-06T06:12:07.220Z,99.99
2024-04-06T06:13:07.171Z,99.99
2024-04-06T06:14:07.174Z,99.99
2024-04-06T06:15:07.140Z,99.99
2024-04-06T06:16:07.151Z,99.99
2024-04-06T06:17:07.118Z,99.99
2024-04-06T06:18:07.143Z,99.99
2024-04-06T06:19:07.100Z,99.99
2024-04-06T06:20:07.096Z,99.99
2024-04-06T06:21:07.082Z,99.99
2024-04-06T06:22:07.093Z,99.99
2024-04-06T06:23:07.056Z,99.99
2024-04-06T06:24:07.063Z,99.99
2024-04-06T06:25:07.060Z,99.99
2024-04-06T06:26:07.025Z,99.99
2024-04-06T06:27:07.032Z,99.99
2024-04-06T06:28:07.028Z,99.99
2024-04-06T06:29:07.024Z,99.78
2024-04-06T06:30:07.011Z,99.99
2024-04-06T06:31:06.961Z,99.48
2024-04-06T06:32:06.970Z,99.48
2024-04-06T06:33:07.008Z,98.62
2024-04-06T06:34:06.958Z,98.41
2024-04-06T06:35:06.919Z,98.11
2024-04-06T06:38:06.933Z,97.56
2024-04-06T06:41:06.860Z,97.66
2024-04-06T06:42:06.849Z,97.76
2024-04-06T06:43:06.873Z,96.95
2024-04-06T06:44:07.058Z,96.54
2024-04-06T06:45:06.835Z,96.39
2024-04-06T06:46:06.809Z,96.75
2024-04-06T06:47:06.808Z,96.95
2024-04-06T06:48:06.791Z,97.11
2024-04-06T06:49:06.806Z,96.80
2024-04-06T06:50:06.790Z,97.20
2024-04-06T06:51:06.773Z,96.09
2024-04-06T06:52:06.766Z,96.19
2024-04-06T06:53:06.962Z,95.23
2024-04-06T06:54:06.740Z,94.83
2024-04-06T06:55:06.998Z,94.32
2024-04-06T06:56:07.347Z,93.97
2024-04-06T06:57:06.709Z,94.07
2024-04-06T06:58:06.688Z,94.18
2024-04-06T06:59:06.664Z,94.18
2024-04-06T07:01:06.670Z,94.38
2024-04-06T07:02:06.716Z,94.48
2024-04-06T07:03:06.651Z,93.46
2024-04-06T07:04:06.652Z,92.91
2024-04-06T07:05:06.603Z,92.91
2024-04-06T07:06:06.602Z,93.52
2024-04-06T07:07:08.510Z,94.13
2024-04-06T07:08:06.587Z,93.22
2024-04-06T07:09:06.551Z,92.97
2024-04-06T07:10:08.666Z,92.67
2024-04-06T07:11:06.539Z,92.87
2024-04-06T07:12:06.537Z,93.38
2024-04-06T07:13:06.561Z,92.97
2024-04-06T07:14:06.568Z,93.23
2024-04-06T07:15:06.499Z,92.47
2024-04-06T07:16:06.496Z,92.63
2024-04-06T07:17:06.477Z,93.13
2024-04-06T07:18:06.462Z,92.68
2024-04-06T07:19:06.530Z,92.28
2024-04-06T07:20:06.475Z,91.67
2024-04-06T07:21:06.447Z,91.37
2024-04-06T07:22:06.476Z,91.47
2024-04-06T07:23:06.427Z,91.27
2024-04-06T07:24:06.428Z,91.06
2024-04-06T07:25:06.422Z,90.56
2024-04-06T07:26:06.410Z,90.36
2024-04-06T07:27:06.415Z,90.62
2024-04-06T07:28:06.404Z,89.85
2024-04-06T07:29:06.383Z,90.72
2024-04-06T07:30:06.347Z,90.56
2024-04-06T07:31:06.351Z,90.52
2024-04-06T07:32:06.354Z,90.41
2024-04-06T07:33:06.306Z,90.66
2024-04-06T07:34:06.345Z,91.42
2024-04-06T07:35:06.330Z,91.02
2024-04-06T07:36:06.279Z,90.92
2024-04-06T07:37:06.322Z,90.11
2024-04-06T07:38:06.310Z,90.27
2024-04-06T07:40:06.459Z,89.81
2024-04-06T07:41:06.218Z,88.85
2024-04-06T07:42:06.208Z,89.06
2024-04-06T07:43:06.368Z,90.17
2024-04-06T07:44:06.209Z,89.76
2024-04-06T07:45:06.196Z,88.35
2024-04-06T07:46:06.368Z,88.25
2024-04-06T07:47:06.193Z,88.75
2024-04-06T07:48:06.151Z,89.87
2024-04-06T07:49:06.164Z,88.65
2024-04-06T07:50:06.152Z,88.45
2024-04-06T07:51:06.137Z,88.55
2024-04-06T07:52:06.207Z,88.15
2024-04-06T07:53:06.101Z,88.04
2024-04-06T07:54:06.126Z,88.15
2024-04-06T07:55:06.095Z,88.01
2024-04-06T07:56:06.076Z,86.79
2024-04-06T07:57:06.109Z,85.78
2024-04-06T07:58:06.073Z,86.29
2024-04-06T07:59:06.053Z,85.99
2024-04-06T08:00:06.059Z,86.25
2024-04-06T08:01:06.031Z,86.35
2024-04-06T08:02:06.001Z,86.15
2024-04-06T08:03:07.488Z,85.84
2024-04-06T08:04:06.040Z,85.94
2024-04-06T08:05:05.971Z,86.61
2024-04-06T08:06:06.000Z,85.50
2024-04-06T08:07:06.724Z,83.98
2024-04-06T08:08:05.933Z,85.64
2024-04-06T08:09:05.945Z,85.10
2024-04-06T08:10:05.969Z,84.99
2024-04-06T08:11:05.914Z,85.10
2024-04-06T08:12:06.132Z,85.70
2024-04-06T08:13:05.910Z,84.79
2024-04-06T08:14:13.686Z,86.36
2024-04-06T08:15:07.088Z,86.16
2024-04-06T08:16:05.906Z,84.65
2024-04-06T08:17:05.859Z,85.05
2024-04-06T08:18:05.838Z,84.45
2024-04-06T08:19:05.869Z,86.27
2024-04-06T08:20:05.822Z,83.64
2024-04-06T08:21:06.020Z,83.34
2024-04-06T08:22:05.837Z,83.34
2024-04-06T08:23:05.825Z,83.10
2024-04-06T08:24:05.793Z,82.73
2024-04-06T08:25:05.778Z,83.95
2024-04-06T08:26:05.768Z,84.75
2024-04-06T08:27:05.787Z,84.81
2024-04-06T08:28:05.732Z,85.42
2024-04-06T08:29:05.736Z,84.91
2024-04-06T08:30:05.751Z,84.81
2024-04-06T08:31:05.699Z,83.91
2024-04-06T08:32:05.703Z,86.13
2024-04-06T08:33:07.213Z,85.98
2024-04-06T08:34:05.824Z,84.47
2024-04-06T08:35:05.657Z,83.26
2024-04-06T08:36:05.703Z,81.95
2024-04-06T08:37:05.626Z,81.95
2024-04-06T08:38:05.716Z,83.06
2024-04-06T08:39:05.608Z,83.56
2024-04-06T08:40:05.690Z,82.15
2024-04-06T08:41:05.609Z,82.35
2024-04-06T08:42:05.619Z,82.11
2024-04-06T08:43:05.796Z,81.81
2024-04-06T08:44:05.558Z,82.11
2024-04-06T08:45:05.554Z,83.22
2024-04-06T08:46:05.768Z,83.72
2024-04-06T08:47:05.521Z,82.51
2024-04-06T08:48:05.558Z,82.92
2024-04-06T08:49:05.505Z,82.51
2024-04-06T08:50:05.491Z,82.31
2024-04-06T08:51:05.478Z,82.01
2024-04-06T08:52:05.472Z,82.92
2024-04-06T08:53:05.462Z,83.22
2024-04-06T08:54:05.504Z,82.01
2024-04-06T08:55:05.494Z,82.01
2024-04-06T08:56:05.426Z,81.71
2024-04-06T08:57:05.416Z,82.21
2024-04-06T08:58:05.410Z,82.48
2024-04-06T08:59:05.442Z,81.10
2024-04-06T09:00:05.387Z,81.17
2024-04-06T09:01:05.382Z,80.77
2024-04-06T09:02:05.609Z,81.47
2024-04-06T09:03:05.370Z,82.28
2024-04-06T09:04:05.350Z,81.93
2024-04-06T09:05:05.388Z,81.07
2024-04-06T09:06:05.368Z,81.73
2024-04-06T09:07:05.534Z,81.63
2024-04-06T09:08:05.296Z,81.63
2024-04-06T09:09:05.356Z,81.84
2024-04-06T09:10:05.331Z,81.79
2024-04-06T09:11:05.260Z,81.13
2024-04-06T09:12:05.257Z,81.73
2024-04-06T09:13:05.238Z,79.62
2024-04-06T09:14:05.284Z,79.72
2024-04-06T09:15:05.216Z,79.68
2024-04-06T09:16:05.223Z,80.99
2024-04-06T09:17:05.193Z,80.29
2024-04-06T09:18:05.193Z,79.24
2024-04-06T09:19:05.177Z,79.35
2024-04-06T09:20:07.018Z,77.53
2024-04-06T09:21:05.163Z,78.98
2024-04-06T09:22:05.175Z,78.74
2024-04-06T09:23:05.177Z,79.14
2024-04-06T09:24:05.127Z,78.84
2024-04-06T09:25:05.116Z,77.94
2024-04-06T09:26:05.136Z,78.60
2024-04-06T09:27:05.090Z,79.00
2024-04-06T09:28:05.081Z,78.50
2024-04-06T09:29:19.250Z,78.00
2024-04-06T09:32:23.091Z,77.03
2024-04-06T09:33:20.863Z,77.70
2024-04-06T09:34:21.162Z,78.94
2024-04-06T09:35:20.964Z,78.94
2024-04-06T09:36:20.837Z,78.80
2024-04-06T09:37:20.867Z,78.80
2024-04-06T09:38:23.867Z,78.90
2024-04-06T09:39:20.792Z,77.63
2024-04-06T09:40:21.178Z,77.90
2024-04-06T09:41:20.771Z,76.89
2024-04-06T09:42:20.787Z,77.00
2024-04-06T09:43:20.766Z,76.79
2024-04-06T09:44:23.048Z,77.39
2024-04-06T09:45:20.895Z,77.96
2024-04-06T09:46:20.718Z,75.65
2024-04-06T09:47:20.768Z,76.05
2024-04-06T09:48:20.734Z,75.75
2024-04-06T09:49:20.757Z,76.92
2024-04-06T09:50:22.581Z,76.02
2024-04-06T09:51:20.671Z,76.02
2024-04-06T09:52:20.778Z,75.21
2024-04-06T09:53:20.647Z,76.52
2024-04-06T09:54:20.636Z,75.92
2024-04-06T09:55:20.681Z,74.71
2024-04-06T09:56:23.282Z,73.81
2024-04-06T09:57:21.596Z,75.71
2024-04-06T09:58:20.635Z,76.32
2024-04-06T09:59:20.580Z,76.12
2024-04-06T10:00:20.928Z,74.61
2024-04-06T10:01:20.626Z,75.92
2024-04-06T10:02:23.287Z,75.82
2024-04-06T10:03:20.541Z,76.21
2024-04-06T10:04:20.536Z,75.82
2024-04-06T10:05:20.598Z,76.92
2024-04-06T10:06:20.575Z,77.42
2024-04-06T10:07:20.559Z,77.02
2024-04-06T10:08:22.676Z,77.02
2024-04-06T10:09:20.489Z,76.12
2024-04-06T10:10:20.476Z,75.58
2024-04-06T10:11:20.632Z,75.78
2024-04-06T10:12:20.469Z,76.08
2024-04-06T10:13:20.477Z,77.79
2024-04-06T10:14:20.417Z,78.15
2024-04-06T10:15:20.541Z,76.45
2024-04-06T10:16:20.456Z,75.84
2024-04-06T10:17:20.385Z,76.11
2024-04-06T10:18:20.388Z,76.61
2024-04-06T10:19:20.433Z,75.41
2024-04-06T10:20:20.380Z,74.27
2024-04-06T10:21:20.368Z,73.36
2024-04-06T10:22:20.358Z,74.27
2024-04-06T10:23:20.366Z,73.36
2024-04-06T10:24:20.322Z,73.77
2024-04-06T10:25:20.481Z,72.66
2024-04-06T10:26:20.381Z,73.16
2024-04-06T10:27:20.352Z,73.36
2024-04-06T10:28:20.297Z,73.77
2024-04-06T10:29:20.256Z,74.07
2024-04-06T10:30:20.254Z,75.07
2024-04-06T10:31:26.376Z,73.97
2024-04-06T10:32:21.226Z,74.67
2024-04-06T10:33:20.278Z,73.47
2024-04-06T10:34:20.280Z,72.93
2024-04-06T10:35:20.208Z,71.77
2024-04-06T10:36:20.222Z,72.13
2024-04-06T10:37:20.267Z,72.43
2024-04-06T10:38:20.166Z,73.33
2024-04-06T10:39:20.478Z,72.43
2024-04-06T10:40:20.442Z,70.43
2024-04-06T10:41:20.333Z,71.39
2024-04-06T10:42:20.120Z,69.59
2024-04-06T10:43:20.237Z,70.29
2024-04-06T10:44:20.318Z,69.19
2024-04-06T10:45:20.097Z,68.66
2024-04-06T10:46:20.146Z,68.46
2024-04-06T10:47:20.085Z,68.76
2024-04-06T10:48:20.214Z,68.55
2024-04-06T10:49:20.287Z,68.93
2024-04-06T10:50:20.030Z,69.62
2024-04-06T10:51:20.041Z,69.43
2024-04-06T10:52:20.077Z,68.43
2024-04-06T10:53:20.126Z,66.93
2024-04-06T10:54:19.995Z,65.69
2024-04-06T10:55:20.179Z,67.22
2024-04-06T10:56:19.971Z,66.09
2024-04-06T10:57:19.959Z,67.89
2024-04-06T10:58:19.977Z,68.06
2024-04-06T10:59:19.954Z,65.89
2024-04-06T11:00:19.927Z,67.79
2024-04-06T11:01:20.195Z,67.59
2024-04-06T11:02:19.933Z,64.56
2024-04-06T11:03:19.911Z,66.26
2024-04-06T11:04:19.953Z,67.66
2024-04-06T11:05:19.885Z,66.06
2024-04-06T11:06:19.863Z,64.76
2024-04-06T11:07:19.903Z,66.26
2024-04-06T11:08:19.864Z,65.63
2024-04-06T11:09:19.836Z,65.23
2024-04-06T11:10:19.875Z,64.33
2024-04-06T11:11:19.819Z,64.83
2024-04-06T11:12:19.817Z,63.63
2024-04-06T11:13:19.827Z,64.53
2024-04-06T11:14:19.807Z,62.83
2024-04-06T11:15:19.776Z,62.23
2024-04-06T11:16:19.801Z,63.17
2024-04-06T11:17:19.783Z,62.73
2024-04-06T11:18:19.876Z,62.23
2024-04-06T11:19:19.790Z,63.53
2024-04-06T11:20:19.751Z,63.33
2024-04-06T11:21:19.705Z,63.83
2024-04-06T11:22:19.771Z,62.53
2024-04-06T11:23:19.677Z,63.13
2024-04-06T11:24:20.006Z,61.04
2024-04-06T11:25:19.720Z,61.43
2024-04-06T11:26:19.688Z,62.81
2024-04-06T11:27:19.679Z,63.60
2024-04-06T11:28:19.635Z,63.87
2024-04-06T11:29:19.617Z,61.68
2024-04-06T11:30:19.613Z,60.68
2024-04-06T11:31:19.646Z,62.37
2024-04-06T11:32:19.658Z,61.38
2024-04-06T11:33:19.573Z,62.77
2024-04-06T11:34:19.594Z,61.47
2024-04-06T11:35:19.599Z,61.98
2024-04-06T11:36:19.549Z,61.08
2024-04-06T11:37:19.617Z,61.87
2024-04-06T11:38:19.619Z,61.38
2024-04-06T11:39:19.508Z,61.47
2024-04-06T11:40:19.538Z,60.58
2024-04-06T11:41:19.488Z,63.27
2024-04-06T11:42:19.626Z,62.87
2024-04-06T11:43:19.531Z,62.27
2024-04-06T11:44:19.477Z,62.77
2024-04-06T11:45:19.447Z,62.18
2024-04-06T11:46:19.488Z,59.88
2024-04-06T11:47:19.433Z,61.18
2024-04-06T11:48:19.482Z,61.90
2024-04-06T11:49:19.435Z,62.57
2024-04-06T11:50:19.434Z,62.27
2024-04-06T11:51:19.380Z,62.30
2024-04-06T11:52:19.399Z,62.50
2024-04-06T11:53:19.367Z,62.30
2024-04-06T11:54:19.395Z,60.71
2024-04-06T11:55:19.366Z,62.20
2024-04-06T11:56:19.366Z,61.90
2024-04-06T11:57:19.322Z,62.20
2024-04-06T11:58:19.362Z,61.21
2024-04-06T11:59:19.301Z,60.41
2024-04-06T12:00:21.833Z,60.61
2024-04-06T12:01:19.313Z,60.91
2024-04-06T12:02:19.330Z,61.80
2024-04-06T12:03:19.264Z,59.88
2024-04-06T12:04:19.274Z,59.61
2024-04-06T12:05:19.460Z,59.78
2024-04-06T12:06:19.435Z,60.58
2024-04-06T12:07:19.263Z,60.58
2024-04-06T12:08:19.227Z,62.04
2024-04-06T12:09:19.224Z,60.25
2024-04-06T12:10:19.335Z,62.45
2024-04-06T12:11:19.201Z,60.85
2024-04-06T12:12:19.418Z,62.24
2024-04-06T12:13:19.182Z,59.72
2024-04-06T12:14:19.204Z,60.15
2024-04-06T12:15:19.139Z,57.46
2024-04-06T12:16:19.157Z,60.15
2024-04-06T12:17:19.117Z,59.45
2024-04-06T12:18:19.420Z,57.86
2024-04-06T12:19:19.111Z,58.53
2024-04-06T12:20:19.104Z,59.85
2024-04-06T12:21:19.068Z,59.75
2024-04-06T12:22:19.259Z,59.75
2024-04-06T12:23:19.072Z,60.65
2024-04-06T12:24:19.060Z,60.32
2024-04-06T12:25:19.079Z,58.25
2024-04-06T12:26:19.086Z,58.62
2024-04-06T12:27:19.006Z,58.95
2024-04-06T12:28:19.046Z,58.75
2024-04-06T12:29:19.021Z,58.83
2024-04-06T12:30:18.981Z,59.52
2024-04-06T12:31:19.054Z,57.56
2024-04-06T12:32:18.996Z,59.55
2024-04-06T12:33:18.996Z,59.95
2024-04-06T12:34:19.313Z,59.42
2024-04-06T12:35:19.246Z,60.05
2024-04-06T12:36:18.914Z,58.42
2024-04-06T12:37:18.920Z,58.23
2024-04-06T12:38:18.909Z,57.93
2024-04-06T12:39:19.021Z,59.72
2024-04-06T12:40:18.907Z,57.70
2024-04-06T12:41:18.861Z,56.70
2024-04-06T12:42:18.860Z,56.01
2024-04-06T12:43:18.845Z,55.78
2024-04-06T12:44:18.917Z,56.38
2024-04-06T12:45:18.811Z,55.88
2024-04-06T12:46:18.909Z,54.91
2024-04-06T12:47:18.807Z,56.68
2024-04-06T12:48:19.091Z,56.10
2024-04-06T12:49:18.808Z,56.10
2024-04-06T12:50:18.809Z,57.00
2024-04-06T12:51:19.087Z,57.67
2024-04-06T12:52:18.823Z,54.81
2024-04-06T12:53:18.772Z,57.37
2024-04-06T12:54:18.919Z,57.77
2024-04-06T12:55:18.770Z,58.57
2024-04-06T12:56:18.700Z,57.17
2024-04-06T12:57:18.740Z,57.20
2024-04-06T12:58:18.681Z,56.48
2024-04-06T12:59:18.663Z,55.98
2024-04-06T13:00:18.701Z,56.87